Flight Track Log - Related Links

Times and Time Zones

All times are in EDT time to prevent confusion due to time zone crossing. See the GJS3707 flight status page for this flight to view local times or setup timezone preferences in your user account.

Time Position Orientation Groundspeed Altitude Reporting Facility
EDT Latitude Longitude Course Direction KTS MPH feet Rate Location/Type
Sat 07:01:52 PM 43.5156 -116.0669 112° Southeast 235 270 7,100  Level Salt Lake Center
Sat 07:02:53 PM 43.5350 -115.9764 73° East 278 320 9,300 1,854 Climbing Salt Lake Center
Sat 07:03:55 PM 43.5889 -115.8781 53° Northeast 311 358 10,900 1,512 Climbing Salt Lake Center
Sat 07:04:56 PM 43.6564 -115.7536 53° Northeast 380 437 12,400 1,672 Climbing Salt Lake Center
Sat 07:05:00 PM 43.9710 -115.3416 55° Northeast  Level FlightAware Approximate
Sat 07:05:57 PM 43.7181 -115.6339 54° Northeast 396 456 14,300  Level Salt Lake Center
Sat 07:06:00 PM 44.0420 -115.1997 55° Northeast  Level FlightAware Approximate
Sat 07:06:59 PM 43.7939 -115.4883 54° Northeast 417 480 16,300  Level Salt Lake Center
Sat 07:08:00 PM 43.8611 -115.3597 54° Northeast 431 496 17,900 1,561 Climbing Salt Lake Center
Sat 07:09:02 PM 43.9292 -115.2275 54° Northeast 441 507 19,500 1,512 Climbing Salt Lake Center
Sat 07:10:03 PM 44.0111 -115.0689 54° Northeast 454 522 21,000 1,415 Climbing Salt Lake Center
Sat 07:11:05 PM 44.0806 -114.9303 55° Northeast 458 527 22,400 1,220 Climbing Salt Lake Center
Sat 07:12:06 PM 44.1139 -114.7333 77° East 473 544 23,500 1,131 Climbing Salt Lake Center
Sat 07:13:07 PM 44.1336 -114.5586 81° East 478 550 24,700 1,122 Climbing Salt Lake Center
Sat 07:14:09 PM 44.1517 -114.3789 82° East 487 560 25,800 1,171 Climbing Salt Lake Center
Sat 07:15:10 PM 44.1736 -114.1708 82° East 487 560 27,100 1,317 Climbing Salt Lake Center
Sat 07:16:12 PM 44.1908 -113.9922 82° East 487 560 28,500 1,463 Climbing Salt Lake Center
Sat 07:17:13 PM 44.2083 -113.7922 83° East 479 551 30,100 1,415 Climbing Salt Lake Center
Sat 07:18:15 PM 44.2247 -113.6161 83° East 481 554 31,400 1,268 Climbing Salt Lake Center
Sat 07:19:16 PM 44.2444 -113.4122 82° East 479 551 32,700 1,024 Climbing Salt Lake Center
Sat 07:20:18 PM 44.2597 -113.2361 83° East 479 551 33,500 780 Climbing Salt Lake Center
Sat 07:21:19 PM 44.2797 -113.0267 82° East 489 563 34,300 738 Climbing Salt Lake Center
Sat 07:22:20 PM 44.2958 -112.8458 83° East 492 566 35,000 341 Climbing Salt Lake Center
Sat 07:23:22 PM 44.3119 -112.6622 83° East 497 572 35,000  Level Salt Lake Center
Sat 07:24:23 PM 44.3300 -112.4408 83° East 513 590 35,000  Level Salt Lake Center
Sat 07:25:25 PM 44.3469 -112.2508 83° East 515 593 35,000  Level Salt Lake Center
Sat 07:26:26 PM 44.3644 -112.0278 84° East 518 596 35,000  Level Salt Lake Center
Sat 07:27:28 PM 44.3800 -111.8369 83° East 518 596 35,000  Level Salt Lake Center
Sat 07:28:29 PM 44.3947 -111.6464 84° East 520 598 35,000  Level Salt Lake Center
Sat 07:29:31 PM 44.4117 -111.4256 84° East 520 598 35,000  Level Salt Lake Center
Sat 07:30:32 PM 44.4281 -111.2067 84° East 517 595 35,000  Level Salt Lake Center
Sat 07:31:34 PM 44.4425 -111.0183 84° East 515 593 35,000  Level Salt Lake Center
Sat 07:32:35 PM 44.4553 -110.8272 85° East 517 595 35,000  Level Salt Lake Center
Sat 07:33:37 PM 44.4706 -110.6044 84° East 518 596 35,000  Level Salt Lake Center
Sat 07:34:38 PM 44.4844 -110.4100 84° East 523 602 35,000  Level Salt Lake Center
Sat 07:35:39 PM 44.4989 -110.1856 85° East 520 598 35,000  Level Salt Lake Center
Sat 07:36:41 PM 44.5119 -109.9939 84° East 519 597 35,000  Level Salt Lake Center
Sat 07:37:42 PM 44.5239 -109.7992 85° East 525 604 35,000  Level Salt Lake Center
Sat 07:38:44 PM 44.5372 -109.5739 85° East 521 600 35,000  Level Salt Lake Center
Sat 07:39:45 PM 44.5469 -109.3703 86° East 525 604 35,000  Level Salt Lake Center
Sat 07:40:47 PM 44.5589 -109.1750 85° East 527 606 35,000  Level Salt Lake Center
Sat 07:41:48 PM 44.5700 -108.9458 86° East 528 608 35,000  Level Salt Lake Center
Sat 07:42:50 PM 44.5811 -108.7508 85° East 525 604 35,000  Level Salt Lake Center
Sat 07:43:52 PM 44.5928 -108.5231 86° East 526 605 35,000  Level Salt Lake Center
Sat 07:44:53 PM 44.6019 -108.3275 86° East 527 606 35,000  Level Salt Lake Center
Sat 07:45:55 PM 44.6117 -108.0981 87° East 531 611 35,000  Level Salt Lake Center
Sat 07:46:56 PM 44.6203 -107.9022 86° East 533 613 35,000  Level Salt Lake Center
Sat 07:47:58 PM 44.6306 -107.6739 86° East 534 615 35,000  Level Salt Lake Center
Sat 07:48:59 PM 44.6378 -107.4761 87° East 535 616 35,000  Level Salt Lake Center
Sat 07:50:01 PM 44.6467 -107.2447 87° East 535 616 35,000  Level Salt Lake Center
Sat 07:51:02 PM 44.6556 -107.0442 86° East 538 619 35,000  Level Salt Lake Center
Sat 07:52:04 PM 44.6625 -106.8431 87° East 541 623 35,000  Level Salt Lake Center
Sat 07:53:06 PM 44.6714 -106.6069 87° East 543 625 35,000  Level Salt Lake Center
Sat 07:54:07 PM 44.6775 -106.4061 87° East 540 621 35,000  Level Salt Lake Center
Sat 07:54:43 PM 44.6817 -106.2711 87° East 541 623 35,000  Level Denver Center
Sat 07:55:45 PM 44.6883 -106.0692 87° East 542 624 35,000  Level Denver Center
Sat 07:56:10 PM 44.6914 -105.9642 88° East 542 624 35,000  Level Salt Lake Center
Sat 07:56:46 PM 44.6944 -105.8331 88° East 543 625 35,000  Level Denver Center
Sat 07:57:48 PM 44.6983 -105.6314 88° East 541 623 35,000  Level Denver Center
Sat 07:58:13 PM 44.7025 -105.5244 87° East 543 625 35,000  Level Salt Lake Center
Sat 07:59:14 PM 44.7069 -105.3194 88° East 547 629 35,000  Level Salt Lake Center
Sat 07:59:52 PM 44.7086 -105.1847 89° East 545 627 35,000  Level Denver Center
Sat 08:00:53 PM 44.7125 -104.9811 88° East 545 627 35,000  Level Denver Center
Sat 08:01:55 PM 44.7175 -104.7431 88° East 545 627 35,000  Level Denver Center
Sat 08:02:19 PM 44.7186 -104.6458 89° East 546 628 35,000  Level Salt Lake Center
Sat 08:03:20 PM 44.7222 -104.4333 89° East 549 632 35,000  Level Salt Lake Center
Sat 08:03:59 PM 44.7228 -104.2986 90° East 548 631 35,000  Level Denver Center
Sat 08:05:00 PM 44.7256 -104.0911 89° East 553 636 35,000  Level Denver Center
Sat 08:06:02 PM 44.7269 -103.8503 89° East 552 635 35,000  Level Denver Center
Sat 08:07:16 PM 44.7300 -103.6092 89° East 551 634 35,000  Level Denver Center
Sat 08:08:18 PM 44.7303 -103.3867 90° East 554 638 35,000  Level Denver Center
Sat 08:09:20 PM 44.7300 -103.1711 90° East 552 635 35,000  Level Denver Center
Sat 08:10:17 PM 44.7322 -102.9561 89° East 553 636 35,000  Level Minneapolis Center
Sat 08:11:19 PM 44.7317 -102.7403 90° East 553 636 35,000  Level Minneapolis Center
Sat 08:12:20 PM 44.7319 -102.5256 90° East 552 635 35,000  Level Minneapolis Center
Sat 08:13:22 PM 44.7294 -102.3103 91° East 552 635 35,000  Level Minneapolis Center
Sat 08:14:23 PM 44.7286 -102.0528 90° East 551 634 35,000  Level Minneapolis Center
Sat 08:15:24 PM 44.7272 -101.8806 91° East 552 635 35,000  Level Minneapolis Center
Sat 08:16:26 PM 44.7233 -101.6217 91° East 553 636 35,000  Level Minneapolis Center
Sat 08:17:40 PM 44.7211 -101.4069 91° East 551 634 35,000  Level Minneapolis Center
Sat 08:18:41 PM 44.7175 -101.1464 91° East 555 639 35,000  Level Minneapolis Center
Sat 08:19:43 PM 44.7139 -100.9281 91° East 558 642 35,000  Level Minneapolis Center
Sat 08:20:44 PM 44.7083 -100.7106 92° East 559 643 35,000  Level Minneapolis Center
Sat 08:21:46 PM 44.7044 -100.4939 91° East 559 643 35,000  Level Minneapolis Center
Sat 08:22:47 PM 44.6989 -100.2356 92° East 558 642 35,000  Level Minneapolis Center
Sat 08:23:48 PM 44.6942 -100.0203 92° East 558 642 35,000  Level Minneapolis Center
Sat 08:24:50 PM 44.6883 -99.8056 92° East 558 642 35,000  Level Minneapolis Center
Sat 08:25:51 PM 44.6833 -99.5894 92° East 559 643 35,000  Level Minneapolis Center
Sat 08:26:53 PM 44.6775 -99.3753 92° East 556 640 35,000  Level Minneapolis Center
Sat 08:27:54 PM 44.6711 -99.1592 92° East 556 640 35,000  Level Minneapolis Center
Sat 08:28:56 PM 44.6619 -98.9025 93° East 553 636 35,000  Level Minneapolis Center
Sat 08:29:57 PM 44.6556 -98.6897 92° East 549 632 35,000  Level Minneapolis Center
Sat 08:30:59 PM 44.6464 -98.4761 93° East 550 633 35,000  Level Minneapolis Center
Sat 08:32:00 PM 44.6389 -98.2811 93° East 550 633 35,000  Level Minneapolis Center
Sat 08:33:02 PM 44.6300 -98.0681 93° East 548 631 35,000  Level Minneapolis Center
Sat 08:34:03 PM 44.6186 -97.8125 93° East 548 631 35,000  Level Minneapolis Center
Sat 08:35:05 PM 44.6092 -97.6003 94° East 546 628 35,000  Level Minneapolis Center
Sat 08:36:06 PM 44.5983 -97.3886 94° East 545 627 35,000  Level Minneapolis Center
Sat 08:37:08 PM 44.5614 -97.1850 104° East 538 619 35,000  Level Minneapolis Center
Sat 08:38:09 PM 44.5125 -96.9889 109° East 535 616 35,000  Level Minneapolis Center
Sat 08:39:11 PM 44.4631 -96.7931 109° East 534 615 35,000  Level Minneapolis Center
Sat 08:40:12 PM 44.4133 -96.5978 110° East 532 612 35,000  Level Minneapolis Center
Sat 08:41:14 PM 44.3625 -96.4017 110° East 535 616 35,000  Level Minneapolis Center
Sat 08:42:15 PM 44.3125 -96.2003 109° East 537 618 35,000  Level Minneapolis Center
Sat 08:43:17 PM 44.2581 -95.9969 110° East 540 621 35,000  Level Minneapolis Center
Sat 08:44:19 PM 44.2064 -95.8028 110° East 533 613 35,000  Level Minneapolis Center
Sat 08:45:20 PM 44.1444 -95.5728 111° Southeast 530 610 35,000  Level Minneapolis Center
Sat 08:46:22 PM 44.0925 -95.3814 111° Southeast 529 609 35,000  Level Minneapolis Center
Sat 08:47:23 PM 44.0403 -95.1917 111° Southeast 527 606 35,000  Level Minneapolis Center
Sat 08:48:25 PM 43.9878 -95.0019 111° Southeast 527 606 35,000  Level Minneapolis Center
Sat 08:49:27 PM 43.9358 -94.8117 111° Southeast 528 608 35,000  Level Minneapolis Center
Sat 08:50:28 PM 43.8831 -94.6247 111° Southeast 524 603 35,000  Level Minneapolis Center
Sat 08:51:30 PM 43.8306 -94.4353 111° Southeast 526 605 35,000  Level Minneapolis Center
Sat 08:52:31 PM 43.7869 -94.2850 112° Southeast 527 606 35,000  Level Minneapolis Center
Sat 08:53:33 PM 43.7169 -94.0392 111° Southeast 527 606 35,000  Level Minneapolis Center
Sat 08:54:35 PM 43.6631 -93.8533 112° Southeast 527 606 35,000  Level Minneapolis Center
Sat 08:55:37 PM 43.6094 -93.6678 112° Southeast 526 605 35,000  Level Minneapolis Center
Sat 08:56:38 PM 43.5444 -93.4442 112° Southeast 531 611 35,000  Level Minneapolis Center
Sat 08:57:40 PM 43.4881 -93.2589 113° Southeast 530 610 35,000 -435 Level Minneapolis Center
Sat 08:58:42 PM 43.4339 -93.0733 112° Southeast 527 606 34,100 -919 Descending Minneapolis Center
Sat 08:59:44 PM 43.3797 -92.8878 112° Southeast 521 600 33,100 -976 Descending Minneapolis Center
Sat 09:00:45 PM 43.3267 -92.7142 113° Southeast 509 586 32,100 -927 Descending Minneapolis Center
Sat 09:01:47 PM 43.2736 -92.5408 113° Southeast 499 574 31,200 -532 Descending Minneapolis Center
Sat 09:02:49 PM 43.2108 -92.3319 112° Southeast 497 572 31,000 -98 Descending Minneapolis Center
Sat 09:03:50 PM 43.1558 -92.1569 113° Southeast 503 579 31,000  Level Minneapolis Center
Sat 09:04:52 PM 43.1014 -91.9772 112° Southeast 510 587 31,000 -273 Level Minneapolis Center
Sat 09:05:40 PM 43.0567 -91.8378 114° Southeast 506 582 30,500 -873 Descending Chicago Center
Sat 09:06:42 PM 43.0031 -91.6619 113° Southeast 500 575 29,400 -732 Descending Chicago Center
Sat 09:07:43 PM 42.9647 -91.4797 106° East 508 585 29,000 -316 Descending Chicago Center
Sat 09:07:58 PM 42.9611 -91.4397 97° East 510 587 29,000  Level Minneapolis Center
Sat 09:08:59 PM 42.9417 -91.2475 98° East 510 587 29,000  Level Minneapolis Center
Sat 09:09:46 PM 42.9206 -91.0908 100° East 522 601 29,000 -550 Level Chicago Center
Sat 09:10:48 PM 42.8850 -90.8967 104° East 527 606 28,000 -1,317 Descending Chicago Center
Sat 09:11:49 PM 42.8447 -90.6728 104° East 515 593 26,300 -1,415 Descending Chicago Center
Sat 09:12:51 PM 42.8117 -90.4903 104° East 505 581 25,100 -1,113 Descending Chicago Center
Sat 09:13:53 PM 42.7794 -90.3133 104° East 491 565 24,000 -537 Descending Chicago Center
Sat 09:14:54 PM 42.7469 -90.1372 104° East 486 559 24,000 -293 Level Chicago Center
Sat 09:15:56 PM 42.7100 -89.9636 106° East 482 555 23,400 -1,122 Descending Chicago Center
Sat 09:16:57 PM 42.6722 -89.7908 107° East 465 535 21,700 -1,756 Descending Chicago Center
Sat 09:17:59 PM 42.6347 -89.6294 107° East 452 520 19,800 -2,195 Descending Chicago Center
Sat 09:19:00 PM 42.5942 -89.4483 107° East 435 501 17,200 -2,098 Descending Chicago Center
Sat 09:20:02 PM 42.5600 -89.2975 107° East 424 488 15,500 -1,024 Descending Chicago Center
Sat 09:21:03 PM 42.5264 -89.1511 107° East 412 474 15,100 -439 Descending Chicago Center
Sat 09:22:05 PM 42.4933 -89.0053 107° East 408 470 14,600 -1,355 Descending Chicago Center
Sat 09:23:07 PM 42.4600 -88.8619 107° East 402 463 12,300 -2,000 Descending Chicago Center
Sat 09:24:08 PM 42.4278 -88.7289 108° East 373 429 10,500 -1,525 Descending Chicago Center
Sat 09:25:09 PM 42.4008 -88.6119 107° East 333 383 9,200 -1,122 Descending Chicago Center
Sat 09:26:11 PM 42.3567 -88.4881 116° Southeast 312 359 8,200 -1,268 Descending Chicago Center
Sat 09:27:12 PM 42.3078 -88.3947 125° Southeast 312 359 6,600 -1,574 Descending Chicago Center
Sat 09:28:13 PM 42.2606 -88.3069 126° Southeast 298 343 5,000 -780 Descending Chicago Center
Sat 09:29:15 PM 42.2142 -88.2269 128° Southeast 282 325 5,000  Level Chicago Center
Sat 09:30:16 PM 42.1706 -88.1467 126° Southeast 270 311 5,000 -341 Level Chicago Center
Sat 09:31:18 PM 42.1267 -88.0875 135° Southeast 239 275 4,300 -982 Descending Chicago Center
Sat 09:32:06 PM 42.0833 -88.0333 137° Southeast 201 231 3,200 -1,375 Descending Chicago TRACON

Login

Don't have an account? Register now (free) for customized features, flight alerts, and more!